Time;durP1;ratioP1;P1;durP2;ratioP2;P2;SDS_P1;SDS_P2;PMS_P1;PMS_P2;Temp;Humidity;BMP_temperature;BMP_pressure;BME280_temperature;BME280_humidity;BME280_pressure;Samples;Min_cycle;Max_cycle;Signal;HPM_P1;HPM_P2
2023/07/26 00:01:44;;;;;;;4.97;1.50;;;19.00;99.90;;;;;;5107784;28;20251;-76
2023/07/26 00:04:11;;;;;;;1.33;1.08;;;19.00;99.90;;;;;;5106105;28;20397;-70
2023/07/26 00:06:38;;;;;;;3.30;1.88;;;19.00;99.90;;;;;;5114568;28;20240;-76
2023/07/26 00:09:05;;;;;;;1.88;1.15;;;19.00;99.90;;;;;;5113958;28;20263;-76
2023/07/26 00:11:32;;;;;;;2.92;1.88;;;18.90;99.90;;;;;;5114021;27;20248;-77
2023/07/26 00:14:00;;;;;;;2.03;1.20;;;18.90;99.90;;;;;;5107465;28;20661;-77
2023/07/26 00:16:27;;;;;;;3.00;2.13;;;18.90;99.90;;;;;;5112047;28;20228;-70
2023/07/26 00:18:54;;;;;;;2.42;1.40;;;18.90;99.90;;;;;;5113459;28;20247;-77
2023/07/26 00:21:21;;;;;;;1.75;0.93;;;19.00;99.90;;;;;;5113788;28;20617;-70
2023/07/26 00:23:48;;;;;;;1.85;1.35;;;19.00;99.90;;;;;;5114401;28;20236;-71
2023/07/26 00:26:15;;;;;;;3.17;1.33;;;19.00;99.90;;;;;;5113891;28;20201;-70
2023/07/26 00:28:41;;;;;;;1.48;1.02;;;19.00;99.90;;;;;;5110255;27;20248;-76
2023/07/26 00:31:10;;;;;;;1.85;1.00;;;19.00;99.90;;;;;;5099075;28;20255;-73
2023/07/26 00:33:37;;;;;;;2.15;0.98;;;18.90;99.90;;;;;;5113332;28;20707;-70
2023/07/26 00:36:04;;;;;;;1.27;0.85;;;19.00;99.90;;;;;;5113548;28;20245;-70
2023/07/26 00:38:31;;;;;;;1.42;1.10;;;18.90;99.90;;;;;;5113398;28;20197;-77
2023/07/26 00:40:57;;;;;;;1.20;1.00;;;18.90;99.90;;;;;;5113346;28;20237;-77
2023/07/26 00:43:24;;;;;;;3.17;1.40;;;18.90;99.90;;;;;;5113658;27;20251;-69
2023/07/26 00:45:52;;;;;;;2.00;1.33;;;18.90;99.90;;;;;;5113136;28;20243;-70
2023/07/26 00:48:20;;;;;;;1.90;1.00;;;18.90;99.90;;;;;;5113484;28;20272;-70
2023/07/26 00:50:48;;;;;;;3.90;1.65;;;19.00;99.90;;;;;;5113526;28;20647;-77
2023/07/26 00:53:16;;;;;;;1.73;1.02;;;19.00;99.90;;;;;;5113441;28;20216;-70
2023/07/26 00:55:43;;;;;;;3.17;1.20;;;18.90;99.90;;;;;;5099085;28;20229;-78
2023/07/26 00:58:11;;;;;;;2.17;1.00;;;18.90;99.90;;;;;;5112967;28;20221;-76
2023/07/26 01:00:41;;;;;;;2.35;1.27;;;18.90;99.90;;;;;;5113156;28;20511;-75
2023/07/26 01:03:08;;;;;;;1.70;1.35;;;18.90;99.90;;;;;;5112796;28;21020;-70
2023/07/26 01:05:44;;;;;;;1.48;1.13;;;18.80;99.90;;;;;;5113186;28;20236;-70
2023/07/26 01:08:22;;;;;;;2.70;1.25;;;18.80;99.90;;;;;;5112282;28;20614;-77
2023/07/26 01:10:54;;;;;;;1.02;0.80;;;18.80;99.90;;;;;;5113007;28;20569;-70
2023/07/26 01:13:27;;;;;;;1.85;1.52;;;18.70;99.90;;;;;;5113209;28;20215;-76
2023/07/26 01:15:54;;;;;;;4.28;1.70;;;18.70;99.90;;;;;;5112500;28;20236;-77
2023/07/26 01:18:21;;;;;;;1.45;1.35;;;18.80;99.90;;;;;;5105044;28;20240;-77
2023/07/26 01:20:49;;;;;;;6.18;1.75;;;18.80;99.90;;;;;;5113181;28;20240;-77
2023/07/26 01:23:18;;;;;;;1.35;0.68;;;18.90;99.90;;;;;;5112693;28;20209;-70
2023/07/26 01:25:45;;;;;;;1.67;1.27;;;18.90;99.90;;;;;;5113074;28;20236;-69
2023/07/26 01:28:12;;;;;;;4.78;1.45;;;19.00;99.90;;;;;;5112063;27;20239;-74
2023/07/26 01:30:39;;;;;;;1.30;1.17;;;19.00;99.90;;;;;;5112777;27;20726;-77
2023/07/26 01:33:08;;;;;;;1.85;1.42;;;18.90;99.90;;;;;;5112185;28;20229;-76
2023/07/26 01:35:36;;;;;;;2.75;1.42;;;18.90;99.90;;;;;;5112529;28;20204;-70
2023/07/26 01:38:04;;;;;;;3.70;1.30;;;18.80;99.90;;;;;;5111544;28;20594;-77
2023/07/26 01:40:34;;;;;;;2.92;1.40;;;18.80;99.90;;;;;;5112873;28;20232;-77
2023/07/26 01:43:01;;;;;;;2.45;1.10;;;18.80;99.90;;;;;;5111894;28;20236;-72
2023/07/26 01:45:29;;;;;;;2.08;0.85;;;18.80;99.90;;;;;;5112403;28;20702;-70
2023/07/26 01:47:55;;;;;;;3.35;1.20;;;18.80;99.90;;;;;;5111945;28;20248;-70
2023/07/26 01:50:23;;;;;;;1.35;1.25;;;18.80;99.90;;;;;;5111911;27;20275;-77
2023/07/26 01:52:50;;;;;;;2.60;1.45;;;18.80;99.90;;;;;;5112095;28;20292;-69
2023/07/26 01:55:17;;;;;;;4.95;1.38;;;18.80;99.90;;;;;;5112379;28;20259;-70
2023/07/26 01:57:45;;;;;;;3.03;1.25;;;18.70;99.90;;;;;;5112559;27;20237;-78
2023/07/26 02:00:12;;;;;;;1.42;1.20;;;18.70;99.90;;;;;;5111584;27;20248;-77
2023/07/26 02:02:39;;;;;;;2.83;1.33;;;18.70;99.90;;;;;;5112012;28;20680;-77
2023/07/26 02:05:07;;;;;;;4.00;1.65;;;18.70;99.90;;;;;;5111123;28;20236;-70
2023/07/26 02:07:34;;;;;;;1.60;1.02;;;18.70;99.90;;;;;;5111910;28;20287;-77
2023/07/26 02:10:01;;;;;;;1.02;0.80;;;18.70;99.90;;;;;;5111435;28;20232;-77
2023/07/26 02:12:28;;;;;;;3.22;1.35;;;18.70;99.90;;;;;;5111763;28;20229;-78
2023/07/26 02:14:56;;;;;;;4.40;1.15;;;18.80;99.90;;;;;;5111307;28;20244;-70
2023/07/26 02:17:23;;;;;;;1.50;1.10;;;18.70;99.90;;;;;;5111657;28;20232;-77
2023/07/26 02:19:50;;;;;;;2.92;1.20;;;18.70;99.90;;;;;;5111316;28;20240;-70
2023/07/26 02:22:17;;;;;;;2.65;1.10;;;18.70;99.90;;;;;;5111931;28;20247;-70
2023/07/26 02:24:44;;;;;;;2.35;1.15;;;18.70;99.90;;;;;;5112216;28;20240;-75
2023/07/26 02:27:11;;;;;;;3.65;1.58;;;18.70;99.90;;;;;;5110657;28;20248;-70
2023/07/26 02:29:38;;;;;;;3.78;0.90;;;18.80;99.90;;;;;;5111284;28;20263;-76
2023/07/26 02:32:07;;;;;;;4.15;1.02;;;18.80;99.90;;;;;;5111115;28;20665;-70
2023/07/26 02:34:35;;;;;;;2.38;1.52;;;18.80;99.90;;;;;;5111296;28;20237;-70
2023/07/26 02:37:02;;;;;;;1.48;0.88;;;18.80;99.90;;;;;;5111220;28;20236;-74
2023/07/26 02:39:29;;;;;;;3.90;1.33;;;18.70;99.90;;;;;;5111136;28;20772;-77
2023/07/26 02:41:55;;;;;;;1.63;1.33;;;18.70;99.90;;;;;;5111040;28;20243;-73
2023/07/26 02:44:22;;;;;;;3.00;0.98;;;18.60;99.90;;;;;;5111168;28;20248;-77
2023/07/26 02:46:49;;;;;;;2.58;1.17;;;18.50;99.90;;;;;;5111282;28;20240;-70
2023/07/26 02:49:18;;;;;;;2.55;1.10;;;18.50;99.90;;;;;;5111196;28;20259;-69
2023/07/26 02:51:45;;;;;;;3.13;1.63;;;18.50;99.90;;;;;;5111331;28;20236;-77
2023/07/26 02:54:12;;;;;;;3.47;1.52;;;18.50;99.90;;;;;;5110926;28;20230;-76
2023/07/26 02:56:39;;;;;;;3.05;1.30;;;18.50;99.90;;;;;;5110941;28;20241;-77
2023/07/26 02:59:06;;;;;;;1.42;1.10;;;18.60;99.90;;;;;;5110722;27;20244;-69
2023/07/26 03:01:32;;;;;;;3.42;1.42;;;18.60;99.90;;;;;;5110645;28;20273;-77
2023/07/26 03:03:59;;;;;;;2.55;1.10;;;18.50;99.90;;;;;;5110312;28;20251;-71
2023/07/26 03:06:28;;;;;;;2.38;0.90;;;18.60;99.90;;;;;;5110898;28;20247;-69
2023/07/26 03:08:54;;;;;;;2.95;1.52;;;18.60;99.90;;;;;;5110758;28;20260;-76
2023/07/26 03:11:21;;;;;;;2.30;1.40;;;18.60;99.90;;;;;;5111077;28;20240;-70
2023/07/26 03:13:48;;;;;;;5.53;1.13;;;18.50;99.90;;;;;;5110882;28;20243;-70
2023/07/26 03:16:17;;;;;;;5.10;1.25;;;18.40;99.90;;;;;;5111049;28;20244;-70
2023/07/26 03:18:44;;;;;;;3.03;1.10;;;18.40;99.90;;;;;;5111031;28;20601;-77
2023/07/26 03:21:11;;;;;;;1.70;1.13;;;18.30;99.90;;;;;;5110975;28;20245;-71
2023/07/26 03:23:39;;;;;;;3.05;1.40;;;18.30;99.90;;;;;;5110845;28;20545;-70
2023/07/26 03:26:06;;;;;;;2.42;1.30;;;18.30;99.90;;;;;;5110368;28;20201;-71
2023/07/26 03:28:33;;;;;;;3.55;1.30;;;18.20;99.90;;;;;;5110639;28;20247;-77
2023/07/26 03:31:00;;;;;;;2.65;1.63;;;18.20;99.90;;;;;;5110419;28;20236;-70
2023/07/26 03:33:27;;;;;;;2.22;1.45;;;18.20;99.90;;;;;;5110855;28;20205;-70
2023/07/26 03:35:54;;;;;;;1.13;0.88;;;18.10;99.90;;;;;;5110443;28;20233;-70
2023/07/26 03:38:21;;;;;;;1.85;0.90;;;18.00;99.90;;;;;;5112412;28;20240;-70
2023/07/26 03:40:49;;;;;;;1.88;1.20;;;18.00;99.90;;;;;;5114892;28;20247;-70
2023/07/26 03:43:16;;;;;;;1.42;1.20;;;18.00;99.90;;;;;;5115044;28;20278;-71
2023/07/26 03:45:43;;;;;;;2.50;1.20;;;17.80;99.90;;;;;;5115116;28;20209;-77
2023/07/26 03:48:10;;;;;;;1.25;1.08;;;17.80;99.90;;;;;;5114064;28;20534;-70
2023/07/26 03:50:37;;;;;;;3.13;1.45;;;17.80;99.90;;;;;;5114517;28;20267;-70
2023/07/26 03:53:04;;;;;;;2.78;1.00;;;17.90;99.90;;;;;;5114281;28;20241;-77
2023/07/26 03:55:31;;;;;;;2.08;1.45;;;17.90;99.90;;;;;;5114493;28;20261;-70
2023/07/26 03:57:59;;;;;;;4.72;1.63;;;17.80;99.90;;;;;;5113850;28;20237;-70
2023/07/26 04:00:26;;;;;;;1.60;1.35;;;17.90;99.90;;;;;;5114457;28;20696;-70
2023/07/26 04:02:53;;;;;;;3.30;1.40;;;17.80;99.90;;;;;;5113845;28;20254;-77
2023/07/26 04:05:20;;;;;;;2.63;1.70;;;17.80;99.90;;;;;;5114147;28;20228;-74
2023/07/26 04:07:47;;;;;;;2.33;1.30;;;17.80;99.90;;;;;;5114519;28;20236;-70
2023/07/26 04:10:14;;;;;;;3.25;1.38;;;17.80;99.90;;;;;;5113762;28;20220;-70
2023/07/26 04:12:40;;;;;;;3.42;1.60;;;17.70;99.90;;;;;;5114263;28;20273;-77
2023/07/26 04:15:10;;;;;;;2.63;1.27;;;17.80;99.90;;;;;;5113750;28;20648;-71
2023/07/26 04:17:37;;;;;;;2.88;1.42;;;17.70;99.90;;;;;;5114038;28;20236;-74
2023/07/26 04:20:05;;;;;;;2.08;1.13;;;17.80;99.90;;;;;;5113680;28;20257;-70
2023/07/26 04:22:32;;;;;;;4.70;1.45;;;17.70;99.90;;;;;;5113975;28;20233;-75
2023/07/26 04:24:59;;;;;;;3.30;1.10;;;17.80;99.90;;;;;;5113537;27;20648;-77
2023/07/26 04:27:26;;;;;;;1.70;1.10;;;17.80;99.90;;;;;;5113765;28;20205;-70
2023/07/26 04:29:53;;;;;;;3.97;1.20;;;17.80;99.90;;;;;;5113200;28;20750;-70
2023/07/26 04:32:21;;;;;;;4.05;1.63;;;17.80;99.90;;;;;;5113867;28;20703;-75
2023/07/26 04:34:48;;;;;;;2.13;1.48;;;17.90;99.90;;;;;;5113883;28;20243;-71
2023/07/26 04:37:15;;;;;;;4.43;1.20;;;18.00;99.90;;;;;;5113878;28;20244;-70
2023/07/26 04:39:42;;;;;;;2.83;1.88;;;18.10;99.90;;;;;;5113567;28;20239;-77
2023/07/26 04:42:09;;;;;;;2.05;1.40;;;18.10;99.90;;;;;;5113546;28;20267;-77
2023/07/26 04:44:36;;;;;;;1.55;1.38;;;18.10;99.90;;;;;;5113416;28;20240;-73
2023/07/26 04:47:03;;;;;;;7.28;1.42;;;18.20;99.90;;;;;;5113242;28;20236;-77
2023/07/26 04:49:32;;;;;;;4.43;1.27;;;18.20;99.90;;;;;;5112589;28;20267;-77
2023/07/26 04:51:58;;;;;;;3.67;2.00;;;18.20;99.90;;;;;;5112908;28;20240;-70
2023/07/26 04:54:25;;;;;;;2.03;1.40;;;18.20;99.90;;;;;;5113666;28;20236;-78
2023/07/26 04:56:52;;;;;;;1.95;1.30;;;18.20;99.90;;;;;;5102868;28;20243;-70
2023/07/26 04:59:19;;;;;;;2.13;1.58;;;18.30;99.90;;;;;;5107457;28;21128;-70
2023/07/26 05:01:46;;;;;;;1.48;1.25;;;18.30;99.90;;;;;;5089963;28;20261;-70
2023/07/26 05:04:13;;;;;;;2.10;1.33;;;18.30;99.90;;;;;;5092282;28;20587;-70
2023/07/26 05:06:41;;;;;;;2.20;1.25;;;18.30;99.90;;;;;;5092678;28;20240;-78
2023/07/26 05:09:08;;;;;;;2.33;1.30;;;18.30;99.90;;;;;;5091587;28;20677;-72
2023/07/26 05:11:35;;;;;;;2.90;1.65;;;18.40;99.90;;;;;;5092673;28;20248;-73
2023/07/26 05:14:02;;;;;;;1.80;1.42;;;18.40;99.90;;;;;;5091796;28;20241;-79
2023/07/26 05:16:29;;;;;;;2.60;1.52;;;18.30;99.90;;;;;;5092412;28;20247;-79
2023/07/26 05:18:57;;;;;;;3.30;1.48;;;18.20;99.90;;;;;;5091594;28;20323;-77
2023/07/26 05:21:25;;;;;;;2.80;1.30;;;18.20;99.90;;;;;;5091615;28;20213;-74
2023/07/26 05:23:53;;;;;;;4.78;1.20;;;18.20;99.90;;;;;;5091383;28;20669;-74
2023/07/26 05:26:20;;;;;;;3.28;1.40;;;18.40;99.90;;;;;;5088471;28;20225;-74
2023/07/26 05:28:47;;;;;;;2.35;1.30;;;18.40;99.90;;;;;;5092725;28;20676;-73
2023/07/26 05:31:14;;;;;;;6.85;1.98;;;18.40;99.90;;;;;;5075479;28;20324;-73
2023/07/26 05:33:41;;;;;;;2.47;1.20;;;18.40;99.90;;;;;;5086725;28;20210;-73
2023/07/26 05:36:08;;;;;;;3.30;1.73;;;18.50;99.90;;;;;;5082117;28;20241;-74
2023/07/26 05:38:35;;;;;;;2.65;1.38;;;18.50;99.90;;;;;;5075269;28;20252;-74
2023/07/26 05:41:05;;;;;;;1.27;1.17;;;18.60;99.90;;;;;;5081006;28;20248;-74
2023/07/26 05:43:32;;;;;;;1.83;1.52;;;18.60;99.90;;;;;;5091579;28;20809;-73
2023/07/26 05:45:58;;;;;;;2.40;1.38;;;18.60;99.90;;;;;;5081088;28;20225;-75
2023/07/26 05:48:25;;;;;;;2.97;1.77;;;18.60;99.90;;;;;;5079156;28;20271;-73
2023/07/26 05:50:52;;;;;;;2.25;1.15;;;18.70;99.90;;;;;;5080716;28;20269;-73
2023/07/26 05:53:19;;;;;;;2.10;1.08;;;18.80;99.90;;;;;;5082261;28;20236;-73
2023/07/26 05:55:46;;;;;;;3.28;1.52;;;18.90;99.90;;;;;;5078356;28;20248;-73
2023/07/26 05:58:15;;;;;;;2.70;1.85;;;19.00;99.90;;;;;;5077869;28;20314;-74
2023/07/26 06:00:42;;;;;;;2.35;1.50;;;19.10;99.90;;;;;;5074281;28;20245;-72
2023/07/26 06:03:09;;;;;;;2.88;1.77;;;19.20;99.90;;;;;;5073241;28;20210;-72
2023/07/26 06:05:36;;;;;;;2.42;1.58;;;19.30;99.90;;;;;;5071482;28;20678;-72
2023/07/26 06:08:02;;;;;;;3.33;1.45;;;19.30;99.90;;;;;;5070260;28;20234;-72
2023/07/26 06:10:29;;;;;;;2.75;1.40;;;19.30;99.90;;;;;;5088899;28;20260;-73
2023/07/26 06:12:56;;;;;;;2.58;1.30;;;19.30;99.90;;;;;;5087178;28;20240;-73
2023/07/26 06:15:25;;;;;;;2.25;1.38;;;19.60;99.90;;;;;;5090343;28;20244;-74
2023/07/26 06:17:51;;;;;;;3.92;1.40;;;19.80;99.90;;;;;;5090274;28;20652;-73
2023/07/26 06:20:18;;;;;;;3.33;1.50;;;19.80;99.90;;;;;;5090138;28;20241;-72
2023/07/26 06:22:47;;;;;;;3.08;1.58;;;19.60;99.90;;;;;;5091336;28;20688;-73
2023/07/26 06:25:14;;;;;;;3.00;1.15;;;19.60;99.90;;;;;;5090853;28;20233;-73
2023/07/26 06:27:40;;;;;;;2.45;1.60;;;19.50;99.90;;;;;;5107608;28;20651;-73
2023/07/26 06:30:08;;;;;;;1.80;1.15;;;19.50;99.90;;;;;;5100078;28;20264;-73
2023/07/26 06:32:37;;;;;;;5.18;1.40;;;19.50;99.90;;;;;;5090869;28;20236;-73
2023/07/26 06:35:04;;;;;;;3.05;1.60;;;19.50;99.90;;;;;;5090580;28;20245;-74
2023/07/26 06:37:31;;;;;;;5.25;1.77;;;19.50;99.90;;;;;;5090784;28;20216;-73
2023/07/26 06:39:58;;;;;;;3.10;1.52;;;19.50;99.90;;;;;;5090721;28;20243;-74
2023/07/26 06:42:25;;;;;;;3.05;1.50;;;19.60;99.90;;;;;;5090459;28;20220;-74
2023/07/26 06:44:52;;;;;;;2.53;1.55;;;19.50;99.90;;;;;;5090225;28;20655;-73
2023/07/26 06:47:19;;;;;;;2.35;1.75;;;19.50;99.90;;;;;;5090559;28;20245;-74
2023/07/26 06:49:47;;;;;;;3.85;2.30;;;19.50;99.90;;;;;;5084213;28;20237;-74
2023/07/26 06:52:14;;;;;;;1.52;1.23;;;19.60;99.90;;;;;;5090610;28;20206;-73
2023/07/26 06:54:41;;;;;;;2.20;1.58;;;19.80;99.90;;;;;;5090455;28;20202;-73
2023/07/26 06:57:08;;;;;;;2.30;1.25;;;20.00;99.90;;;;;;5088874;28;20245;-73
2023/07/26 06:59:34;;;;;;;2.67;1.55;;;20.20;99.90;;;;;;5090760;28;20205;-74
2023/07/26 07:02:01;;;;;;;3.15;1.30;;;20.20;99.90;;;;;;5076274;28;20236;-74
2023/07/26 07:04:28;;;;;;;2.75;1.45;;;20.30;99.90;;;;;;5090867;28;20237;-75
2023/07/26 07:06:57;;;;;;;4.18;1.73;;;20.30;99.90;;;;;;5084960;28;20210;-75
2023/07/26 07:09:24;;;;;;;3.03;1.27;;;20.20;99.90;;;;;;5088001;28;20267;-75
2023/07/26 07:11:51;;;;;;;4.93;1.58;;;20.20;99.90;;;;;;5089624;28;20244;-74
2023/07/26 07:14:18;;;;;;;2.60;1.20;;;20.30;99.90;;;;;;5090903;28;20679;-75
2023/07/26 07:16:45;;;;;;;5.72;1.85;;;20.20;99.90;;;;;;5090702;28;20209;-74
2023/07/26 07:19:12;;;;;;;2.95;1.55;;;20.10;99.90;;;;;;5090029;28;20240;-75
2023/07/26 07:21:39;;;;;;;2.80;1.63;;;20.10;99.90;;;;;;5090355;28;20267;-75
2023/07/26 07:24:07;;;;;;;6.05;2.22;;;20.20;99.90;;;;;;5089357;28;20652;-75
2023/07/26 07:26:34;;;;;;;6.03;1.80;;;20.30;99.90;;;;;;5098770;28;20233;-75
2023/07/26 07:29:01;;;;;;;2.90;1.40;;;20.30;99.90;;;;;;5096178;28;20241;-74
2023/07/26 07:31:28;;;;;;;4.82;1.30;;;20.20;99.90;;;;;;5110564;28;20267;-75
2023/07/26 07:33:55;;;;;;;1.40;1.02;;;20.20;99.90;;;;;;5110361;28;20706;-75
2023/07/26 07:36:21;;;;;;;3.90;1.73;;;20.10;99.90;;;;;;5108565;28;20301;-74
2023/07/26 07:38:48;;;;;;;2.42;1.10;;;20.20;99.90;;;;;;5093058;28;20247;-74
2023/07/26 07:41:17;;;;;;;2.08;1.50;;;20.30;99.90;;;;;;5090207;28;20250;-75
2023/07/26 07:43:44;;;;;;;4.10;1.70;;;20.30;99.90;;;;;;5090438;28;20216;-74
2023/07/26 07:46:11;;;;;;;5.07;1.80;;;20.40;99.90;;;;;;5090029;28;20209;-74
2023/07/26 07:48:38;;;;;;;3.75;1.55;;;20.50;99.90;;;;;;5089985;28;20241;-74
2023/07/26 07:51:05;;;;;;;3.78;1.95;;;20.60;99.90;;;;;;5089649;28;20272;-73
2023/07/26 07:53:31;;;;;;;5.60;2.15;;;20.80;99.90;;;;;;5085897;28;20650;-74
2023/07/26 07:55:58;;;;;;;3.03;2.00;;;20.90;99.90;;;;;;5090020;28;20233;-74
2023/07/26 07:58:27;;;;;;;2.50;1.98;;;20.90;99.90;;;;;;5089960;28;20241;-74
2023/07/26 08:00:58;;;;;;;3.95;1.90;;;21.10;99.90;;;;;;5089676;28;20221;-74
2023/07/26 08:03:25;;;;;;;5.93;1.35;;;21.40;99.90;;;;;;5089703;28;20292;-74
2023/07/26 08:05:51;;;;;;;4.07;1.65;;;21.40;99.90;;;;;;5089897;28;20263;-74
2023/07/26 08:08:18;;;;;;;4.78;1.83;;;22.20;99.90;;;;;;5087989;28;20206;-73
2023/07/26 08:10:45;;;;;;;2.65;1.65;;;22.30;99.90;;;;;;5087392;28;20678;-74
2023/07/26 08:13:12;;;;;;;3.53;2.15;;;22.30;99.90;;;;;;5082799;28;20234;-74
2023/07/26 08:15:40;;;;;;;1.70;1.25;;;22.20;99.90;;;;;;5085569;28;20237;-73
2023/07/26 08:18:08;;;;;;;3.17;1.27;;;22.00;99.90;;;;;;5084447;28;20233;-74
2023/07/26 08:20:35;;;;;;;3.45;1.55;;;21.90;99.90;;;;;;5081735;28;20233;-73
2023/07/26 08:23:01;;;;;;;3.22;1.63;;;22.20;99.90;;;;;;5080368;28;20249;-73
2023/07/26 08:25:28;;;;;;;2.45;2.25;;;22.20;99.90;;;;;;5090955;28;20233;-74
2023/07/26 08:27:56;;;;;;;3.65;1.98;;;22.50;99.90;;;;;;5102656;28;20238;-73
2023/07/26 08:30:23;;;;;;;5.60;1.77;;;22.80;99.90;;;;;;5082826;28;20237;-74
2023/07/26 08:32:52;;;;;;;4.15;2.20;;;23.50;99.90;;;;;;5080598;28;20297;-74
2023/07/26 08:35:19;;;;;;;2.25;1.45;;;22.90;99.90;;;;;;5088884;28;20274;-73
2023/07/26 08:37:46;;;;;;;2.55;1.60;;;22.70;99.90;;;;;;5085251;28;20646;-73
2023/07/26 08:40:14;;;;;;;3.88;2.08;;;22.80;99.90;;;;;;5085504;28;20241;-73
2023/07/26 08:42:41;;;;;;;5.05;1.95;;;23.00;99.90;;;;;;5091107;28;20648;-74
2023/07/26 08:45:09;;;;;;;2.83;1.38;;;22.90;99.90;;;;;;5092502;28;20209;-73
2023/07/26 08:47:37;;;;;;;3.25;1.65;;;22.60;99.90;;;;;;5093210;28;20201;-73
2023/07/26 08:50:07;;;;;;;2.92;1.65;;;22.60;99.90;;;;;;5092582;28;20244;-73
2023/07/26 08:52:35;;;;;;;3.95;1.38;;;23.00;99.90;;;;;;5090898;28;20257;-73
2023/07/26 08:55:02;;;;;;;5.15;1.80;;;23.10;99.90;;;;;;5090785;28;20319;-73
2023/07/26 08:57:29;;;;;;;6.97;2.20;;;23.90;99.90;;;;;;5091844;28;20589;-73
2023/07/26 08:59:56;;;;;;;5.38;2.35;;;24.50;99.90;;;;;;5091702;28;20245;-73
2023/07/26 09:02:24;;;;;;;5.25;2.03;;;24.10;99.90;;;;;;5090267;28;20517;-73
2023/07/26 09:04:51;;;;;;;3.22;1.60;;;24.20;99.90;;;;;;5085574;28;20197;-74
2023/07/26 09:07:19;;;;;;;4.03;1.98;;;24.10;99.90;;;;;;5089167;28;20262;-75
2023/07/26 09:09:46;;;;;;;1.92;1.33;;;24.30;99.90;;;;;;5087412;28;20217;-73
2023/07/26 09:12:25;;;;;;;3.42;2.08;;;24.30;99.90;;;;;;5079336;28;20235;-74
2023/07/26 09:14:55;;;;;;;2.75;1.60;;;24.30;99.90;;;;;;5086995;28;20201;-75
2023/07/26 09:17:22;;;;;;;2.28;1.58;;;24.30;99.90;;;;;;5091745;28;20202;-75
2023/07/26 09:19:51;;;;;;;3.65;2.13;;;24.70;99.90;;;;;;5092095;28;20212;-74
2023/07/26 09:22:22;;;;;;;2.17;1.77;;;25.00;99.90;;;;;;5083375;28;20205;-76
2023/07/26 09:24:50;;;;;;;5.22;1.73;;;25.00;99.90;;;;;;5085045;28;20251;-77
2023/07/26 09:27:19;;;;;;;4.00;2.13;;;27.20;99.90;;;;;;5105499;28;20304;-75
2023/07/26 09:29:55;;;;;;;3.90;1.85;;;31.80;99.90;;;;;;5105754;28;20627;-82
2023/07/26 09:32:29;;;;;;;3.90;2.05;;;35.80;99.90;;;;;;5092048;28;20286;-80
2023/07/26 09:34:59;;;;;;;5.47;2.28;;;31.50;99.90;;;;;;5079343;28;20795;-79
2023/07/26 09:37:28;;;;;;;6.15;1.85;;;35.30;99.90;;;;;;5083569;28;20209;-80
2023/07/26 09:39:55;;;;;;;5.55;2.08;;;36.70;99.90;;;;;;5083758;28;20589;-78
2023/07/26 09:42:23;;;;;;;2.78;2.05;;;38.90;99.90;;;;;;5084260;28;20672;-84
2023/07/26 09:44:57;;;;;;;2.33;1.50;;;38.80;99.90;;;;;;5088979;28;20215;-83
2023/07/26 09:47:35;;;;;;;2.70;1.60;;;34.20;99.90;;;;;;5092336;28;20215;-83
2023/07/26 09:50:02;;;;;;;5.78;2.63;;;32.00;99.90;;;;;;5090325;28;20232;-84
2023/07/26 09:52:31;;;;;;;3.88;2.00;;;33.70;99.90;;;;;;5081201;28;20235;-82
2023/07/26 09:55:01;;;;;;;3.17;2.33;;;32.50;99.90;;;;;;5083665;28;20688;-81
2023/07/26 09:57:29;;;;;;;2.92;1.88;;;31.40;99.90;;;;;;5088174;28;20209;-83
2023/07/26 09:59:59;;;;;;;2.03;1.77;;;29.50;99.90;;;;;;5091583;28;20243;-80
2023/07/26 10:02:27;;;;;;;2.67;1.60;;;27.90;99.90;;;;;;5084020;28;20571;-86
2023/07/26 10:04:58;;;;;;;5.65;2.33;;;26.50;99.90;;;;;;5086981;28;20244;-85
2023/07/26 10:07:28;;;;;;;1.95;1.83;;;27.50;99.90;;;;;;5089953;28;20201;-85
2023/07/26 10:09:58;;;;;;;4.15;1.58;;;30.40;99.90;;;;;;5091587;28;20308;-85
2023/07/26 10:12:26;;;;;;;2.95;1.70;;;37.60;99.90;;;;;;5091933;28;20225;-83
2023/07/26 10:14:56;;;;;;;2.85;1.25;;;38.60;99.90;;;;;;5091665;28;20205;-86
2023/07/26 10:17:26;;;;;;;3.25;1.70;;;37.70;99.90;;;;;;5091566;28;20236;-83
2023/07/26 10:19:55;;;;;;;4.45;1.95;;;39.40;99.90;;;;;;5091036;28;20692;-81
2023/07/26 10:22:22;;;;;;;3.20;1.70;;;41.50;99.90;;;;;;5091230;28;20700;-83
2023/07/26 10:24:49;;;;;;;2.72;1.50;;;35.20;99.90;;;;;;5091403;28;20266;-81
2023/07/26 10:27:18;;;;;;;2.50;1.50;;;31.00;99.90;;;;;;5105518;28;20204;-84
2023/07/26 10:29:45;;;;;;;1.80;1.70;;;29.50;99.90;;;;;;5084349;28;20235;-82
2023/07/26 10:32:12;;;;;;;2.72;2.13;;;29.40;99.90;;;;;;5111392;27;20235;-82
2023/07/26 10:34:39;;;;;;;2.42;1.90;;;30.80;99.90;;;;;;5111413;28;20245;-84
2023/07/26 10:37:18;;;;;;;3.35;1.67;;;29.10;99.90;;;;;;5111280;28;20235;-84
2023/07/26 10:39:45;;;;;;;2.80;1.42;;;28.20;99.90;;;;;;5111894;28;20204;-84
2023/07/26 10:42:27;;;;;;;2.63;1.90;;;27.00;99.90;;;;;;5111598;28;20209;-82
2023/07/26 10:44:54;;;;;;;4.28;1.65;;;27.10;99.90;;;;;;5104769;28;20247;-84
2023/07/26 10:47:21;;;;;;;3.17;1.55;;;27.40;99.90;;;;;;5086673;28;20213;-80
2023/07/26 10:49:48;;;;;;;3.05;1.80;;;27.40;99.90;;;;;;5090944;28;20237;-73
2023/07/26 10:52:16;;;;;;;3.60;1.50;;;27.00;99.90;;;;;;5091339;28;20322;-77
2023/07/26 10:54:45;;;;;;;5.38;2.08;;;26.80;99.90;;;;;;5080788;28;20224;-84
2023/07/26 10:57:16;;;;;;;2.25;1.27;;;26.60;99.90;;;;;;5090667;28;20236;-83
2023/07/26 10:59:57;;;;;;;2.70;1.42;;;26.80;99.90;;;;;;5089152;28;20208;-84
2023/07/26 11:02:44;;;;;;;2.25;1.60;;;27.30;99.90;;;;;;5091007;28;20676;-84
2023/07/26 11:05:13;;;;;;;1.80;1.40;;;26.50;99.90;;;;;;5088490;28;20238;-84
2023/07/26 11:07:58;;;;;;;2.88;1.48;;;26.40;99.90;;;;;;5091087;28;20216;-85
2023/07/26 11:10:28;;;;;;;3.40;1.30;;;26.20;99.90;;;;;;5090527;28;20205;-74
2023/07/26 11:13:07;;;;;;;2.15;1.23;;;26.10;99.90;;;;;;5090572;28;20245;-86
2023/07/26 11:15:37;;;;;;;2.20;1.10;;;25.90;99.90;;;;;;5091284;28;20213;-83
2023/07/26 11:18:04;;;;;;;1.95;1.40;;;25.70;99.90;;;;;;5087602;28;20233;-82
2023/07/26 11:20:32;;;;;;;2.25;1.00;;;26.10;99.90;;;;;;5088524;28;20755;-84
2023/07/26 11:22:59;;;;;;;3.22;1.70;;;26.20;99.90;;;;;;5088655;28;20232;-83
2023/07/26 11:25:26;;;;;;;3.78;1.83;;;26.10;99.90;;;;;;5088002;28;20200;-82
2023/07/26 11:27:54;;;;;;;2.13;1.13;;;25.90;99.90;;;;;;5089858;28;20202;-85
2023/07/26 11:30:21;;;;;;;2.03;1.52;;;25.80;99.90;;;;;;5090560;28;20241;-86
2023/07/26 11:32:50;;;;;;;2.70;0.90;;;25.50;99.90;;;;;;5091241;28;20678;-76
2023/07/26 11:35:20;;;;;;;2.25;1.58;;;25.30;99.90;;;;;;5091523;28;20231;-85
2023/07/26 11:37:52;;;;;;;3.40;1.38;;;25.80;99.90;;;;;;5087307;28;20216;-84
2023/07/26 11:40:19;;;;;;;2.10;1.52;;;26.20;99.90;;;;;;5091239;28;20210;-81
2023/07/26 11:42:46;;;;;;;2.20;1.35;;;26.60;99.90;;;;;;5091103;28;20240;-88
2023/07/26 11:45:14;;;;;;;3.08;1.20;;;26.90;99.90;;;;;;5090385;28;20244;-87
2023/07/26 11:47:41;;;;;;;2.05;1.00;;;26.90;99.90;;;;;;5090352;28;20377;-81
2023/07/26 11:50:10;;;;;;;2.42;1.52;;;27.00;99.90;;;;;;5080222;28;20213;-85
2023/07/26 11:52:38;;;;;;;2.25;1.52;;;27.30;99.90;;;;;;5089624;28;20839;-79
2023/07/26 11:55:06;;;;;;;2.72;1.45;;;27.20;99.90;;;;;;5088363;28;20197;-81
2023/07/26 11:57:34;;;;;;;1.50;1.40;;;27.00;99.90;;;;;;5088647;28;20206;-80
2023/07/26 12:00:04;;;;;;;3.55;1.27;;;26.90;99.90;;;;;;5088182;28;20210;-79
2023/07/26 12:02:31;;;;;;;3.35;1.42;;;26.60;99.90;;;;;;5093219;28;20205;-81
2023/07/26 12:05:19;;;;;;;1.70;1.00;;;26.40;99.90;;;;;;5096060;28;20206;-82
2023/07/26 12:07:48;;;;;;;1.73;1.17;;;26.40;99.90;;;;;;5085786;28;20270;-81
2023/07/26 12:10:16;;;;;;;1.65;1.02;;;26.50;99.90;;;;;;5094067;28;20566;-83
2023/07/26 12:12:44;;;;;;;2.10;1.90;;;26.80;99.90;;;;;;5093677;28;20306;-81
2023/07/26 12:15:12;;;;;;;2.45;1.23;;;27.00;99.90;;;;;;5093384;28;20624;-79
2023/07/26 12:17:54;;;;;;;1.20;0.95;;;27.10;99.90;;;;;;5093375;28;20251;-80
2023/07/26 12:20:22;;;;;;;1.08;1.00;;;27.10;99.90;;;;;;5093697;28;20241;-84
2023/07/26 12:22:53;;;;;;;1.08;0.98;;;27.30;99.90;;;;;;5093840;28;20237;-73
2023/07/26 12:25:21;;;;;;;1.88;1.27;;;27.50;99.90;;;;;;5093370;28;20673;-73
2023/07/26 12:27:49;;;;;;;2.00;0.80;;;27.60;99.90;;;;;;5112492;28;20269;-73
2023/07/26 12:30:19;;;;;;;4.57;1.45;;;27.60;99.90;;;;;;5114017;28;20204;-72
2023/07/26 12:32:46;;;;;;;3.17;1.00;;;27.30;99.90;;;;;;5114107;28;20233;-72
2023/07/26 12:35:23;;;;;;;3.25;1.10;;;27.50;99.90;;;;;;5114032;28;20322;-83
2023/07/26 12:37:50;;;;;;;1.13;1.02;;;27.60;99.90;;;;;;5113398;28;20208;-79
2023/07/26 12:40:20;;;;;;;1.90;1.33;;;27.70;99.90;;;;;;5114091;28;20320;-80
2023/07/26 12:42:47;;;;;;;1.13;1.00;;;27.80;99.90;;;;;;5113781;28;20240;-82
2023/07/26 12:45:14;;;;;;;3.83;1.33;;;27.70;99.90;;;;;;5113665;28;20707;-78
2023/07/26 12:47:42;;;;;;;1.73;1.05;;;27.20;99.90;;;;;;5106766;28;20205;-84
2023/07/26 12:50:11;;;;;;;3.22;1.25;;;26.80;99.90;;;;;;5086283;28;20240;-83
2023/07/26 12:52:40;;;;;;;1.63;1.30;;;26.50;99.90;;;;;;5098986;28;20229;-81